TimeCST,TemperatureF,Dew PointF,Humidity,Sea Level PressureIn,VisibilityMPH,Wind Direction,Wind SpeedMPH,Gust SpeedMPH,PrecipitationIn,Events,Conditions,WindDirDegrees,DateUTC
12:35 AM,51.8,42.8,71,29.94,10.0,South,12.7,23.0,N/A,,Scattered Clouds,190,2013-03-05 06:35:00
12:55 AM,51.8,42.8,71,29.95,10.0,South,10.4,19.6,N/A,,Mostly Cloudy,180,2013-03-05 06:55:00
1:35 AM,51.8,44.6,76,29.95,10.0,South,10.4,23.0,N/A,,Overcast,190,2013-03-05 07:35:00
1:55 AM,51.8,44.6,76,29.94,10.0,South,10.4,-,N/A,,Overcast,180,2013-03-05 07:55:00
2:15 AM,51.8,44.6,76,29.94,10.0,South,10.4,17.3,N/A,,Overcast,180,2013-03-05 08:15:00
2:35 AM,51.8,44.6,76,29.92,10.0,South,11.5,-,N/A,,Overcast,180,2013-03-05 08:35:00
2:55 AM,51.8,44.6,76,29.92,10.0,South,9.2,-,N/A,,Overcast,180,2013-03-05 08:55:00
3:15 AM,51.8,44.6,76,29.93,10.0,South,8.1,-,N/A,,Overcast,180,2013-03-05 09:15:00
3:35 AM,51.8,46.4,82,29.93,10.0,South,10.4,-,N/A,,Overcast,180,2013-03-05 09:35:00
3:55 AM,51.8,46.4,82,29.92,10.0,South,10.4,-,N/A,,Overcast,170,2013-03-05 09:55:00
4:35 AM,51.8,46.4,82,29.93,10.0,South,8.1,-,N/A,,Overcast,180,2013-03-05 10:35:00
4:55 AM,51.8,46.4,82,29.93,10.0,South,9.2,-,N/A,,Overcast,180,2013-03-05 10:55:00
5:15 AM,51.8,46.4,82,29.92,10.0,South,8.1,-,N/A,,Overcast,180,2013-03-05 11:15:00
5:35 AM,53.6,48.2,82,29.93,10.0,South,9.2,-,N/A,,Overcast,180,2013-03-05 11:35:00
5:55 AM,53.6,48.2,82,29.92,10.0,South,9.2,-,N/A,,Overcast,180,2013-03-05 11:55:00
6:55 AM,53.6,50.0,88,29.90,10.0,South,10.4,16.1,N/A,,Overcast,180,2013-03-05 12:55:00
7:15 AM,53.6,50.0,88,29.91,10.0,South,11.5,-,N/A,,Overcast,190,2013-03-05 13:15:00
7:35 AM,55.4,51.8,88,29.90,10.0,South,12.7,16.1,N/A,,Overcast,180,2013-03-05 13:35:00
7:55 AM,59.0,51.8,77,29.89,10.0,South,13.8,20.7,N/A,,Overcast,190,2013-03-05 13:55:00
8:15 AM,57.2,50.0,77,29.88,10.0,South,10.4,-,N/A,,Overcast,170,2013-03-05 14:15:00
8:35 AM,55.4,50.0,82,29.87,10.0,South,11.5,-,N/A,,Overcast,180,2013-03-05 14:35:00
8:55 AM,55.4,51.8,88,29.87,10.0,South,10.4,-,N/A,,Overcast,190,2013-03-05 14:55:00
9:15 AM,57.2,51.8,82,29.86,10.0,South,11.5,18.4,N/A,,Overcast,180,2013-03-05 15:15:00
9:35 AM,57.2,51.8,82,29.86,10.0,South,9.2,18.4,N/A,,Overcast,190,2013-03-05 15:35:00
9:55 AM,59.0,51.8,77,29.85,10.0,South,9.2,-,N/A,,Overcast,190,2013-03-05 15:55:00
10:15 AM,59.0,51.8,77,29.84,10.0,SW,18.4,28.8,N/A,,Overcast,220,2013-03-05 16:15:00
10:35 AM,60.8,53.6,77,29.84,10.0,SSW,12.7,28.8,N/A,Thunderstorm,Overcast,210,2013-03-05 16:35:00
10:55 AM,60.8,53.6,77,29.82,10.0,SW,18.4,24.2,N/A,,Overcast,220,2013-03-05 16:55:00
11:15 AM,60.8,53.6,77,29.80,10.0,SSW,20.7,27.6,N/A,,Overcast,210,2013-03-05 17:15:00
11:35 AM,60.8,53.6,77,29.77,10.0,SSW,13.8,25.3,N/A,,Overcast,200,2013-03-05 17:35:00
11:55 AM,60.8,53.6,77,29.74,10.0,SSW,11.5,21.9,N/A,,Overcast,200,2013-03-05 17:55:00
12:15 PM,60.8,53.6,77,29.74,10.0,SSW,17.3,21.9,N/A,Thunderstorm,Overcast,200,2013-03-05 18:15:00
12:35 PM,60.8,53.6,77,29.73,7.0,SSW,18.4,25.3,N/A,Rain,Light Rain,210,2013-03-05 18:35:00
12:55 PM,60.8,53.6,77,29.70,10.0,SSW,16.1,26.5,N/A,Rain,Light Rain,200,2013-03-05 18:55:00
1:15 PM,60.8,55.4,82,29.69,5.0,SW,17.3,25.3,0.06,Rain-Thunderstorm,Thunderstorms and Rain,220,2013-03-05 19:15:00
1:35 PM,59.0,59.0,100,29.73,1.8,West,31.1,39.1,0.30,Rain,Rain,260,2013-03-05 19:35:00
1:55 PM,55.4,55.4,100,29.77,4.0,WNW,18.4,36.8,0.33,Rain-Thunderstorm,Rain,290,2013-03-05 19:55:00
2:15 PM,55.4,55.4,100,29.76,10.0,West,21.9,31.1,N/A,,Overcast,280,2013-03-05 20:15:00
2:35 PM,55.4,50.0,82,29.78,10.0,WNW,27.6,39.1,N/A,,Mostly Cloudy,290,2013-03-05 20:35:00
2:55 PM,53.6,46.4,77,29.80,10.0,West,34.5,41.4,N/A,Thunderstorm,Mostly Cloudy,280,2013-03-05 20:55:00
3:15 PM,50.0,44.6,82,29.83,10.0,WNW,17.3,31.1,N/A,,Overcast,290,2013-03-05 21:15:00
3:35 PM,48.2,41.0,76,29.86,10.0,WNW,23.0,43.7,N/A,,Overcast,290,2013-03-05 21:35:00
3:55 PM,44.6,39.2,81,29.87,10.0,WNW,18.4,32.2,N/A,,Overcast,290,2013-03-05 21:55:00
4:15 PM,44.6,39.2,81,29.90,10.0,NW,23.0,28.8,N/A,,Overcast,310,2013-03-05 22:15:00
4:35 PM,42.8,37.4,81,29.93,10.0,WNW,21.9,32.2,N/A,,Overcast,290,2013-03-05 22:35:00
4:55 PM,41.0,35.6,81,29.94,10.0,NW,17.3,26.5,N/A,,Overcast,310,2013-03-05 22:55:00
5:15 PM,39.2,35.6,87,29.97,10.0,WNW,23.0,28.8,N/A,,Overcast,290,2013-03-05 23:15:00
5:35 PM,39.2,32.0,75,29.98,10.0,WNW,23.0,36.8,N/A,,Overcast,300,2013-03-05 23:35:00
5:55 PM,37.4,32.0,81,30.00,10.0,WNW,18.4,29.9,N/A,,Overcast,300,2013-03-05 23:55:00
6:15 PM,37.4,32.0,81,30.01,10.0,WNW,17.3,28.8,N/A,,Overcast,300,2013-03-06 00:15:00
6:35 PM,39.2,32.0,75,30.01,10.0,WNW,9.2,25.3,N/A,,Overcast,300,2013-03-06 00:35:00
6:55 PM,39.2,30.2,70,30.00,10.0,WNW,15.0,24.2,N/A,,Overcast,300,2013-03-06 00:55:00
7:15 PM,37.4,32.0,81,30.00,10.0,WNW,13.8,24.2,N/A,,Overcast,300,2013-03-06 01:15:00
7:35 PM,37.4,32.0,81,30.00,10.0,West,9.2,-,N/A,,Mostly Cloudy,280,2013-03-06 01:35:00
7:55 PM,37.4,32.0,81,30.00,10.0,WNW,10.4,16.1,N/A,,Mostly Cloudy,290,2013-03-06 01:55:00
8:15 PM,37.4,32.0,81,30.00,10.0,West,10.4,-,N/A,,Overcast,280,2013-03-06 02:15:00
8:35 PM,37.4,32.0,81,30.00,10.0,West,10.4,-,N/A,,Mostly Cloudy,280,2013-03-06 02:35:00
8:55 PM,37.4,32.0,81,30.00,10.0,West,8.1,-,N/A,,Mostly Cloudy,270,2013-03-06 02:55:00
9:15 PM,37.4,32.0,81,30.00,10.0,West,8.1,-,N/A,,Overcast,260,2013-03-06 03:15:00
9:35 PM,37.4,32.0,81,30.00,10.0,West,9.2,-,N/A,,Overcast,260,2013-03-06 03:35:00
9:55 PM,35.6,32.0,87,29.99,10.0,West,10.4,-,N/A,,Scattered Clouds,260,2013-03-06 03:55:00
10:15 PM,35.6,32.0,87,29.99,10.0,West,12.7,-,N/A,,Clear,270,2013-03-06 04:15:00
10:35 PM,35.6,32.0,87,29.99,10.0,West,11.5,-,N/A,,Clear,270,2013-03-06 04:35:00
10:55 PM,35.6,32.0,87,29.99,10.0,West,12.7,17.3,N/A,,Scattered Clouds,270,2013-03-06 04:55:00
11:15 PM,35.6,32.0,87,29.98,10.0,West,12.7,-,N/A,,Mostly Cloudy,280,2013-03-06 05:15:00
11:35 PM,35.6,30.2,81,29.99,10.0,WNW,11.5,17.3,N/A,,Mostly Cloudy,290,2013-03-06 05:35:00
11:55 PM,35.6,30.2,81,29.99,10.0,WNW,16.1,21.9,N/A,,Overcast,300,2013-03-06 05:55:00